Time;durP1;ratioP1;P1;durP2;ratioP2;P2;SDS_P1;SDS_P2;PMS_P1;PMS_P2;Temp;Humidity;BMP_temperature;BMP_pressure;BME280_temperature;BME280_humidity;BME280_pressure;Samples;Min_cycle;Max_cycle;Signal;HPM_P1;HPM_P2
2023/06/30 00:00:34;;;;;;;12.63;9.73;;;18.20;99.90;;;;;;5057508;28;20174;-77
2023/06/30 00:03:00;;;;;;;11.68;8.27;;;18.20;99.90;;;;;;5076131;28;20174;-75
2023/06/30 00:05:27;;;;;;;14.80;9.20;;;18.10;99.90;;;;;;5075292;28;20217;-75
2023/06/30 00:07:58;;;;;;;13.68;9.15;;;18.00;99.90;;;;;;5057449;28;20197;-75
2023/06/30 00:10:25;;;;;;;12.02;8.68;;;18.00;99.90;;;;;;5075778;28;20558;-75
2023/06/30 00:12:51;;;;;;;9.98;8.07;;;17.90;99.90;;;;;;5058791;28;20178;-75
2023/06/30 00:15:16;;;;;;;9.38;7.18;;;17.90;99.90;;;;;;5062258;28;20266;-75
2023/06/30 00:17:42;;;;;;;12.57;7.57;;;17.90;99.90;;;;;;5061343;28;20745;-75
2023/06/30 00:20:08;;;;;;;10.90;7.53;;;17.90;99.90;;;;;;5061554;28;20177;-76
2023/06/30 00:22:36;;;;;;;12.80;7.68;;;17.90;99.90;;;;;;5062217;28;20724;-75
2023/06/30 00:25:02;;;;;;;11.20;8.23;;;17.90;99.90;;;;;;5062081;28;20181;-75
2023/06/30 00:27:27;;;;;;;13.02;7.97;;;17.80;99.90;;;;;;5067522;28;20192;-75
2023/06/30 00:29:53;;;;;;;13.20;9.68;;;17.70;99.90;;;;;;5082814;28;20174;-75
2023/06/30 00:32:20;;;;;;;12.05;9.30;;;17.70;99.90;;;;;;5060928;28;20174;-75
2023/06/30 00:34:46;;;;;;;13.05;9.05;;;17.60;99.90;;;;;;5078990;28;20205;-75
2023/06/30 00:37:11;;;;;;;11.63;7.80;;;17.60;99.90;;;;;;5080095;28;20189;-75
2023/06/30 00:39:37;;;;;;;9.82;6.80;;;17.60;99.90;;;;;;5078063;28;20193;-75
2023/06/30 00:42:03;;;;;;;9.13;6.95;;;17.60;99.90;;;;;;5078149;28;20257;-75
2023/06/30 00:44:29;;;;;;;9.63;6.97;;;17.50;99.90;;;;;;5058638;28;20178;-76
2023/06/30 00:46:55;;;;;;;10.50;7.03;;;17.40;99.90;;;;;;5039783;28;20209;-75
2023/06/30 00:49:21;;;;;;;8.68;6.85;;;17.30;99.90;;;;;;5057887;28;20190;-76
2023/06/30 00:51:48;;;;;;;10.43;7.63;;;17.30;99.90;;;;;;5057962;28;20538;-77
2023/06/30 00:54:14;;;;;;;11.45;6.80;;;17.30;99.90;;;;;;5039604;28;20571;-76
2023/06/30 00:56:39;;;;;;;11.35;7.50;;;17.20;99.90;;;;;;5039296;28;20240;-77
2023/06/30 00:59:05;;;;;;;11.30;8.02;;;17.20;99.90;;;;;;5038982;28;20210;-76
2023/06/30 01:01:33;;;;;;;14.40;7.68;;;17.10;99.90;;;;;;5057081;28;20175;-77
2023/06/30 01:04:24;;;;;;;10.57;7.50;;;17.00;99.90;;;;;;5039151;28;20654;-77
2023/06/30 01:07:13;;;;;;;12.25;8.45;;;17.00;99.90;;;;;;5039119;28;20213;-77
2023/06/30 01:09:49;;;;;;;9.93;8.30;;;16.90;99.90;;;;;;5056776;28;20182;-77
2023/06/30 01:12:16;;;;;;;10.60;9.10;;;16.70;99.90;;;;;;5039720;28;20170;-78
2023/06/30 01:14:43;;;;;;;14.20;8.57;;;16.70;99.90;;;;;;5060247;28;20201;-78
2023/06/30 01:17:09;;;;;;;14.80;8.85;;;16.70;99.90;;;;;;5077719;28;20170;-78
2023/06/30 01:19:44;;;;;;;11.60;8.10;;;16.60;99.90;;;;;;5059445;28;20569;-78
2023/06/30 01:22:25;;;;;;;15.50;8.00;;;16.60;99.90;;;;;;5059548;28;20173;-77
2023/06/30 01:24:57;;;;;;;9.73;7.22;;;16.60;99.90;;;;;;5076675;28;20166;-77
2023/06/30 01:27:24;;;;;;;9.18;7.03;;;16.60;99.90;;;;;;5059611;28;20190;-78
2023/06/30 01:29:51;;;;;;;8.75;6.55;;;16.50;99.90;;;;;;5059350;28;20185;-78
2023/06/30 01:32:17;;;;;;;11.88;7.10;;;16.50;99.90;;;;;;5076734;28;20153;-78
2023/06/30 01:34:47;;;;;;;9.80;7.85;;;16.50;99.90;;;;;;5076862;28;20689;-77
2023/06/30 01:37:13;;;;;;;9.20;7.90;;;16.30;99.90;;;;;;5076897;28;20177;-78
2023/06/30 01:39:40;;;;;;;12.05;8.45;;;16.30;99.90;;;;;;5077041;28;20669;-78
2023/06/30 01:42:06;;;;;;;12.63;9.55;;;16.20;99.90;;;;;;5059106;28;20243;-78
2023/06/30 01:44:35;;;;;;;12.93;9.00;;;16.10;99.90;;;;;;5076929;28;20260;-79
2023/06/30 01:47:01;;;;;;;15.57;9.35;;;16.10;99.90;;;;;;5077452;28;20189;-79
2023/06/30 01:49:28;;;;;;;11.55;8.55;;;16.00;99.90;;;;;;5077995;28;20208;-79
2023/06/30 01:51:54;;;;;;;11.38;7.97;;;16.00;99.90;;;;;;5061044;28;20192;-79
2023/06/30 01:54:20;;;;;;;9.68;7.20;;;15.80;99.90;;;;;;5061089;28;20169;-79
2023/06/30 01:56:49;;;;;;;11.70;7.32;;;15.70;99.90;;;;;;5078798;28;20173;-78
2023/06/30 01:59:16;;;;;;;9.75;6.97;;;15.60;99.90;;;;;;5081016;28;20230;-79
2023/06/30 02:01:42;;;;;;;11.77;6.90;;;15.50;99.90;;;;;;5062868;28;20211;-79
2023/06/30 02:04:11;;;;;;;10.55;6.30;;;15.50;99.90;;;;;;5082065;28;20189;-79
2023/06/30 02:06:37;;;;;;;14.00;6.97;;;15.40;99.90;;;;;;5080341;28;20201;-79
2023/06/30 02:09:03;;;;;;;12.25;6.95;;;15.30;99.90;;;;;;5079306;28;20200;-78
2023/06/30 02:11:29;;;;;;;11.30;5.97;;;15.30;99.90;;;;;;5079074;28;20170;-79
2023/06/30 02:13:55;;;;;;;10.77;6.60;;;15.30;99.90;;;;;;5078729;28;20199;-78
2023/06/30 02:16:20;;;;;;;9.73;6.32;;;15.20;99.90;;;;;;5060624;28;20563;-79
2023/06/30 02:18:46;;;;;;;13.13;6.45;;;15.20;99.90;;;;;;5078375;28;20228;-78
2023/06/30 02:21:12;;;;;;;12.68;6.32;;;15.20;99.90;;;;;;5078379;28;20174;-78
2023/06/30 02:23:37;;;;;;;13.65;6.05;;;15.10;99.90;;;;;;5060517;28;20177;-79
2023/06/30 02:26:03;;;;;;;10.02;6.43;;;15.10;99.90;;;;;;5059690;28;20201;-78
2023/06/30 02:28:29;;;;;;;10.02;6.72;;;15.00;99.90;;;;;;5059410;28;20200;-79
2023/06/30 02:30:55;;;;;;;10.35;6.47;;;15.00;99.90;;;;;;5059093;28;20177;-78
2023/06/30 02:33:21;;;;;;;8.88;6.32;;;15.00;99.90;;;;;;5059307;28;20557;-79
2023/06/30 02:35:47;;;;;;;10.15;6.82;;;15.00;99.90;;;;;;5076966;28;20169;-78
2023/06/30 02:38:13;;;;;;;11.23;6.57;;;15.00;99.90;;;;;;5059843;28;20197;-78
2023/06/30 02:40:39;;;;;;;8.50;6.30;;;15.00;99.90;;;;;;5077671;28;20207;-79
2023/06/30 02:43:04;;;;;;;10.30;6.60;;;14.90;99.90;;;;;;5059370;28;20373;-79
2023/06/30 02:45:30;;;;;;;10.95;7.28;;;14.90;99.90;;;;;;5058795;28;20216;-79
2023/06/30 02:47:56;;;;;;;8.65;6.90;;;14.90;99.90;;;;;;5058267;28;20669;-79
2023/06/30 02:50:29;;;;;;;9.70;6.85;;;14.90;99.90;;;;;;5059003;28;20633;-79
2023/06/30 02:52:57;;;;;;;12.98;7.53;;;14.90;99.90;;;;;;5058543;28;20598;-78
2023/06/30 02:55:22;;;;;;;12.15;7.93;;;14.90;99.90;;;;;;5075902;28;20257;-78
2023/06/30 02:57:48;;;;;;;9.50;7.20;;;14.90;99.90;;;;;;5058234;28;20225;-78
2023/06/30 03:00:14;;;;;;;9.02;7.13;;;14.90;99.90;;;;;;5058093;28;20209;-79
2023/06/30 03:02:40;;;;;;;10.02;7.03;;;14.90;99.90;;;;;;5076496;28;20169;-79
2023/06/30 03:05:07;;;;;;;13.77;7.15;;;14.90;99.90;;;;;;5076010;28;20198;-79
2023/06/30 03:07:33;;;;;;;12.20;7.65;;;14.90;99.90;;;;;;5076464;28;20190;-79
2023/06/30 03:09:59;;;;;;;13.93;9.25;;;15.00;99.90;;;;;;5057819;28;20201;-78
2023/06/30 03:12:24;;;;;;;13.73;10.52;;;14.90;99.90;;;;;;5058145;28;20190;-79
2023/06/30 03:14:50;;;;;;;15.70;10.45;;;14.90;99.90;;;;;;5075787;28;20174;-79
2023/06/30 03:17:16;;;;;;;18.35;11.52;;;14.90;99.90;;;;;;5057899;28;20182;-78
2023/06/30 03:19:42;;;;;;;14.00;10.55;;;14.90;99.90;;;;;;5077307;28;20221;-78
2023/06/30 03:22:08;;;;;;;14.55;11.32;;;14.90;99.90;;;;;;5075718;28;20251;-79
2023/06/30 03:24:33;;;;;;;16.50;11.63;;;14.90;99.90;;;;;;5057845;28;20252;-78
2023/06/30 03:26:59;;;;;;;15.80;10.98;;;14.90;99.90;;;;;;5076063;28;20202;-78
2023/06/30 03:29:26;;;;;;;17.85;12.88;;;14.80;99.90;;;;;;5075973;28;20197;-78
2023/06/30 03:31:52;;;;;;;19.15;12.00;;;14.80;99.90;;;;;;5075724;28;20219;-78
2023/06/30 03:34:18;;;;;;;21.48;12.20;;;14.80;99.90;;;;;;5075970;28;20174;-78
2023/06/30 03:36:43;;;;;;;18.30;12.40;;;14.90;99.90;;;;;;5076390;28;20205;-79
2023/06/30 03:39:09;;;;;;;20.60;12.23;;;14.90;99.90;;;;;;5076715;28;20198;-78
2023/06/30 03:41:35;;;;;;;17.25;12.23;;;14.90;99.90;;;;;;5058588;28;20720;-79
2023/06/30 03:44:01;;;;;;;19.73;12.55;;;14.90;99.90;;;;;;5058515;28;20193;-78
2023/06/30 03:46:27;;;;;;;21.02;13.10;;;15.00;99.90;;;;;;5059340;28;20198;-78
2023/06/30 03:48:52;;;;;;;16.98;11.40;;;14.90;99.90;;;;;;5060014;28;20280;-78
2023/06/30 03:51:18;;;;;;;18.13;12.13;;;14.80;99.90;;;;;;5079882;28;20566;-78
2023/06/30 03:53:44;;;;;;;17.70;12.90;;;14.80;99.90;;;;;;5062552;28;20177;-78
2023/06/30 03:56:10;;;;;;;25.67;13.88;;;14.80;99.90;;;;;;5062551;28;20181;-78
2023/06/30 03:58:36;;;;;;;25.95;14.65;;;14.80;99.90;;;;;;5063045;28;20571;-78
2023/06/30 04:01:02;;;;;;;26.60;15.73;;;14.80;99.90;;;;;;5062886;28;20178;-78
2023/06/30 04:03:28;;;;;;;18.75;15.18;;;14.80;99.90;;;;;;5063105;28;20698;-77
2023/06/30 04:05:54;;;;;;;20.42;15.00;;;14.80;99.90;;;;;;5081246;28;20288;-78
2023/06/30 04:08:20;;;;;;;24.77;15.30;;;14.80;99.90;;;;;;5081756;28;20611;-78
2023/06/30 04:10:45;;;;;;;25.02;16.02;;;14.80;99.90;;;;;;5081365;28;20174;-78
2023/06/30 04:13:11;;;;;;;25.50;15.63;;;14.80;99.90;;;;;;5082256;28;20578;-78
2023/06/30 04:15:37;;;;;;;22.10;14.13;;;14.80;99.90;;;;;;5064591;28;20550;-77
2023/06/30 04:18:04;;;;;;;23.85;14.13;;;14.80;99.90;;;;;;5079660;28;20602;-79
2023/06/30 04:20:29;;;;;;;24.80;13.57;;;14.80;99.90;;;;;;5061363;28;20218;-78
2023/06/30 04:22:55;;;;;;;20.13;13.25;;;14.80;99.90;;;;;;5061438;28;20264;-78
2023/06/30 04:25:21;;;;;;;21.77;13.07;;;14.80;99.90;;;;;;5079315;28;20181;-78
2023/06/30 04:27:50;;;;;;;23.33;12.38;;;14.80;99.90;;;;;;5061278;28;20194;-78
2023/06/30 04:30:17;;;;;;;21.20;12.85;;;14.80;99.90;;;;;;5061684;28;20177;-79
2023/06/30 04:32:54;;;;;;;24.38;13.57;;;14.90;99.90;;;;;;5078617;28;20258;-79
2023/06/30 04:35:30;;;;;;;16.75;12.00;;;14.90;99.90;;;;;;5078633;28;20499;-79
2023/06/30 04:37:57;;;;;;;18.25;12.82;;;14.90;99.90;;;;;;5078295;28;20622;-78
2023/06/30 04:40:25;;;;;;;22.50;14.10;;;14.90;99.90;;;;;;5060435;28;20198;-79
2023/06/30 04:42:52;;;;;;;24.67;13.40;;;14.80;99.90;;;;;;5078447;28;20235;-78
2023/06/30 04:45:18;;;;;;;20.98;12.63;;;14.90;99.90;;;;;;5052100;28;20242;-79
2023/06/30 04:47:44;;;;;;;23.42;12.75;;;14.90;99.90;;;;;;5040712;28;20228;-78
2023/06/30 04:50:12;;;;;;;20.55;13.60;;;14.90;99.90;;;;;;5040685;28;20581;-79
2023/06/30 04:52:39;;;;;;;16.58;11.85;;;14.90;99.90;;;;;;5040936;28;20182;-80
2023/06/30 04:55:05;;;;;;;19.02;13.07;;;14.90;99.90;;;;;;5040598;28;20183;-79
2023/06/30 04:57:32;;;;;;;18.40;12.98;;;14.90;99.90;;;;;;5058259;28;20179;-77
2023/06/30 04:59:59;;;;;;;20.08;12.60;;;14.90;99.90;;;;;;5039562;28;20214;-78
2023/06/30 05:02:32;;;;;;;22.50;12.57;;;14.90;99.90;;;;;;5006930;28;20214;-78
2023/06/30 05:04:59;;;;;;;21.80;13.55;;;14.90;99.90;;;;;;5040106;28;20551;-78
2023/06/30 05:07:33;;;;;;;18.58;12.32;;;15.00;99.90;;;;;;5023184;28;20685;-78
2023/06/30 05:09:59;;;;;;;21.85;12.63;;;15.00;99.90;;;;;;5039966;28;20174;-78
2023/06/30 05:12:26;;;;;;;18.08;12.45;;;15.00;99.90;;;;;;5040141;28;20179;-78
2023/06/30 05:14:54;;;;;;;21.25;13.45;;;15.00;99.90;;;;;;5045515;28;20239;-78
2023/06/30 05:17:21;;;;;;;21.40;13.75;;;15.00;99.90;;;;;;5079190;28;20180;-77
2023/06/30 05:19:48;;;;;;;26.35;14.10;;;15.10;99.90;;;;;;5060805;28;20637;-77
2023/06/30 05:22:15;;;;;;;18.23;12.88;;;15.10;99.90;;;;;;5044224;28;20205;-77
2023/06/30 05:24:42;;;;;;;21.52;12.82;;;15.10;99.90;;;;;;5043400;28;20182;-78
2023/06/30 05:27:08;;;;;;;18.08;11.88;;;15.20;99.90;;;;;;5059491;28;20212;-78
2023/06/30 05:29:35;;;;;;;17.27;12.45;;;15.20;99.90;;;;;;5059854;28;20331;-78
2023/06/30 05:32:04;;;;;;;20.75;12.10;;;15.10;99.90;;;;;;5059535;28;20178;-78
2023/06/30 05:34:30;;;;;;;24.23;11.60;;;15.10;99.90;;;;;;5059497;28;20212;-78
2023/06/30 05:36:57;;;;;;;23.10;12.35;;;15.00;99.90;;;;;;5077611;28;20567;-77
2023/06/30 05:39:38;;;;;;;19.02;12.52;;;15.00;99.90;;;;;;5077403;28;20193;-78
2023/06/30 05:42:10;;;;;;;21.48;11.60;;;15.10;99.90;;;;;;5059859;28;20197;-78
2023/06/30 05:44:44;;;;;;;19.33;11.70;;;15.10;99.90;;;;;;5043151;28;20186;-78
2023/06/30 05:47:10;;;;;;;17.33;11.73;;;15.10;99.90;;;;;;5059953;28;20208;-78
2023/06/30 05:49:36;;;;;;;17.00;11.73;;;15.10;99.90;;;;;;5059700;28;20201;-78
2023/06/30 05:52:02;;;;;;;16.92;11.80;;;15.10;99.90;;;;;;5060665;28;20276;-78
2023/06/30 05:54:27;;;;;;;23.27;13.20;;;15.00;99.90;;;;;;5059786;28;20166;-78
2023/06/30 05:56:53;;;;;;;18.25;13.00;;;15.00;99.90;;;;;;5078122;28;20213;-78
2023/06/30 05:59:19;;;;;;;20.10;12.75;;;15.00;99.90;;;;;;5059850;28;20638;-78
2023/06/30 06:01:44;;;;;;;18.85;13.43;;;15.10;99.90;;;;;;5059303;28;20620;-78
2023/06/30 06:04:11;;;;;;;19.77;12.98;;;15.20;99.90;;;;;;5076972;28;20174;-78
2023/06/30 06:06:37;;;;;;;19.42;12.45;;;15.20;99.90;;;;;;5058867;28;20236;-78
2023/06/30 06:09:03;;;;;;;22.40;14.27;;;15.20;99.90;;;;;;5058880;28;20276;-79
2023/06/30 06:11:29;;;;;;;22.05;15.38;;;15.10;99.90;;;;;;5076027;28;20205;-78
2023/06/30 06:13:55;;;;;;;20.58;14.05;;;15.10;99.90;;;;;;5076617;28;20255;-78
2023/06/30 06:16:21;;;;;;;22.85;14.70;;;15.20;99.90;;;;;;5077792;28;20185;-79
2023/06/30 06:18:53;;;;;;;24.30;13.63;;;15.20;99.90;;;;;;5060856;28;20197;-79
2023/06/30 06:21:24;;;;;;;22.73;13.70;;;15.20;99.90;;;;;;5062166;28;20177;-79
2023/06/30 06:23:50;;;;;;;23.10;13.63;;;15.20;99.90;;;;;;5078803;28;20193;-79
2023/06/30 06:26:16;;;;;;;22.65;12.38;;;15.20;99.90;;;;;;5060229;28;20198;-80
2023/06/30 06:28:43;;;;;;;14.43;11.25;;;15.10;99.90;;;;;;5063047;28;20657;-80
2023/06/30 06:31:09;;;;;;;20.17;11.63;;;15.10;99.90;;;;;;5078462;28;20177;-80
2023/06/30 06:33:35;;;;;;;18.92;12.15;;;15.10;99.90;;;;;;5060564;28;20239;-80
2023/06/30 06:36:01;;;;;;;21.15;12.15;;;15.10;99.90;;;;;;5061343;28;20178;-80
2023/06/30 06:38:27;;;;;;;22.85;12.63;;;15.10;99.90;;;;;;5077944;28;20197;-82
2023/06/30 06:40:53;;;;;;;18.73;11.40;;;15.20;99.90;;;;;;5078141;28;20205;-80
2023/06/30 06:43:19;;;;;;;27.63;12.05;;;15.30;99.90;;;;;;5077312;28;20249;-79
2023/06/30 06:45:46;;;;;;;15.52;11.45;;;15.30;99.90;;;;;;5077824;28;20247;-79
2023/06/30 06:48:22;;;;;;;25.77;12.73;;;15.40;99.90;;;;;;5058014;28;20189;-80
2023/06/30 06:50:59;;;;;;;20.40;12.75;;;15.40;99.90;;;;;;5076005;28;20176;-79
2023/06/30 06:53:33;;;;;;;19.73;11.80;;;15.40;99.90;;;;;;5057797;28;20184;-80
2023/06/30 06:56:00;;;;;;;16.95;13.65;;;15.30;99.90;;;;;;5057889;28;20286;-80
2023/06/30 06:58:28;;;;;;;21.65;14.38;;;15.40;99.90;;;;;;5057581;28;20600;-79
2023/06/30 07:00:54;;;;;;;21.92;15.32;;;15.40;99.90;;;;;;5076126;28;20166;-80
2023/06/30 07:03:20;;;;;;;23.08;16.23;;;15.40;99.90;;;;;;5076133;28;20640;-79
2023/06/30 07:05:46;;;;;;;20.02;16.30;;;15.30;99.90;;;;;;5076339;28;20206;-79
2023/06/30 07:08:14;;;;;;;23.50;15.38;;;15.40;99.90;;;;;;5075695;28;20202;-80
2023/06/30 07:10:40;;;;;;;24.00;14.68;;;15.50;99.90;;;;;;5057062;28;20174;-79
2023/06/30 07:13:06;;;;;;;18.90;12.95;;;15.60;99.90;;;;;;5057090;28;20189;-80
2023/06/30 07:15:32;;;;;;;18.67;10.88;;;15.70;99.90;;;;;;5057413;28;20185;-79
2023/06/30 07:17:58;;;;;;;16.17;10.20;;;15.80;99.90;;;;;;5056795;28;20315;-80
2023/06/30 07:20:25;;;;;;;24.70;9.90;;;15.90;99.90;;;;;;5075384;28;20197;-79
2023/06/30 07:22:52;;;;;;;14.18;9.63;;;15.70;99.90;;;;;;5056498;28;20177;-79
2023/06/30 07:25:18;;;;;;;17.80;9.27;;;15.70;99.90;;;;;;5074999;28;20642;-79
2023/06/30 07:27:54;;;;;;;11.85;8.90;;;15.90;99.90;;;;;;5056991;28;20283;-80
2023/06/30 07:30:27;;;;;;;14.05;7.57;;;16.10;99.90;;;;;;5057068;28;20174;-79
2023/06/30 07:32:54;;;;;;;16.40;8.00;;;16.20;99.90;;;;;;5074625;28;20154;-79
2023/06/30 07:35:22;;;;;;;12.93;8.13;;;16.20;99.90;;;;;;5075597;28;20150;-80
2023/06/30 07:37:49;;;;;;;12.95;7.38;;;16.20;99.90;;;;;;5076247;28;20197;-80
2023/06/30 07:40:16;;;;;;;12.57;7.63;;;16.20;99.90;;;;;;5076458;28;20582;-79
2023/06/30 07:42:42;;;;;;;10.82;5.65;;;16.20;99.90;;;;;;5059701;28;20185;-79
2023/06/30 07:45:10;;;;;;;10.80;5.25;;;16.10;99.90;;;;;;5060305;28;20280;-79
2023/06/30 07:47:37;;;;;;;7.82;5.50;;;16.00;99.90;;;;;;5059314;28;20213;-80
2023/06/30 07:50:11;;;;;;;8.95;5.30;;;16.00;99.90;;;;;;5059854;28;20177;-79
2023/06/30 07:52:45;;;;;;;8.20;4.93;;;16.00;99.90;;;;;;5060190;28;20579;-79
2023/06/30 07:55:12;;;;;;;8.88;4.70;;;16.00;99.90;;;;;;5060157;28;20582;-79
2023/06/30 07:57:39;;;;;;;6.15;3.75;;;16.00;99.90;;;;;;5059477;28;20166;-80
2023/06/30 08:00:06;;;;;;;9.23;4.28;;;16.10;99.90;;;;;;5076602;28;20599;-79
2023/06/30 08:02:32;;;;;;;6.20;3.90;;;16.10;99.90;;;;;;5059285;28;20181;-80
2023/06/30 08:04:58;;;;;;;13.90;6.32;;;16.10;99.90;;;;;;5059545;28;20193;-79
2023/06/30 08:07:24;;;;;;;6.10;3.78;;;16.10;99.90;;;;;;5077235;28;20193;-79
2023/06/30 08:09:49;;;;;;;22.02;7.97;;;16.10;99.90;;;;;;5077084;28;20190;-80
2023/06/30 08:12:15;;;;;;;11.35;5.00;;;16.30;99.90;;;;;;5060289;28;20178;-79
2023/06/30 08:14:41;;;;;;;11.10;5.00;;;16.40;99.90;;;;;;5077448;28;20162;-79
2023/06/30 08:17:07;;;;;;;8.70;3.47;;;16.50;99.90;;;;;;5075843;28;20197;-79
2023/06/30 08:19:33;;;;;;;6.05;2.75;;;16.70;99.90;;;;;;5060029;28;20208;-80
2023/06/30 08:22:01;;;;;;;7.30;2.90;;;16.80;1.00;;;;;;5058195;28;20556;-79
2023/06/30 08:24:27;;;;;;;8.98;2.75;;;16.80;99.90;;;;;;5076200;28;20174;-80
2023/06/30 08:26:52;;;;;;;5.65;2.88;;;16.80;1.00;;;;;;5057754;28;20667;-79
2023/06/30 08:29:18;;;;;;;5.45;2.90;;;16.90;1.00;;;;;;5058153;28;20209;-80
2023/06/30 08:31:44;;;;;;;6.68;3.00;;;17.10;99.90;;;;;;5058325;28;20196;-80
2023/06/30 08:34:10;;;;;;;5.95;2.70;;;17.00;99.90;;;;;;5076878;28;20178;-79
2023/06/30 08:36:36;;;;;;;4.50;2.60;;;17.10;39.40;;;;;;5080373;28;20178;-80
2023/06/30 08:39:02;;;;;;;5.97;2.50;;;17.10;1.00;;;;;;5060818;28;20251;-80
2023/06/30 08:41:28;;;;;;;4.53;2.53;;;17.00;1.00;;;;;;5079989;28;20184;-79
2023/06/30 08:43:56;;;;;;;13.95;3.20;;;17.10;99.90;;;;;;5064149;28;20184;-80
2023/06/30 08:46:24;;;;;;;5.20;2.53;;;17.20;1.00;;;;;;5063190;28;20211;-80
2023/06/30 08:48:51;;;;;;;5.65;2.88;;;17.20;1.00;;;;;;5069208;28;20193;-80
2023/06/30 08:51:18;;;;;;;4.45;2.85;;;17.40;1.00;;;;;;5062957;28;20320;-80
2023/06/30 08:53:46;;;;;;;3.78;2.95;;;17.50;56.00;;;;;;5079784;28;20166;-80
2023/06/30 08:56:15;;;;;;;6.25;2.78;;;17.50;99.90;;;;;;5062006;28;20189;-80
2023/06/30 08:58:41;;;;;;;8.07;3.25;;;17.70;35.10;;;;;;5078912;28;20197;-79
2023/06/30 09:01:07;;;;;;;8.50;3.22;;;17.50;1.00;;;;;;5060965;28;20178;-80
2023/06/30 09:03:35;;;;;;;5.90;3.25;;;17.50;36.20;;;;;;5060327;28;20180;-79
2023/06/30 09:06:01;;;;;;;4.75;2.60;;;17.60;43.10;;;;;;5078088;28;20293;-79
2023/06/30 09:08:50;;;;;;;4.97;2.97;;;17.70;1.00;;;;;;5079059;28;20276;-79
2023/06/30 09:11:17;;;;;;;6.13;2.90;;;17.80;1.00;;;;;;5060738;28;20208;-79
2023/06/30 09:13:44;;;;;;;5.75;2.95;;;18.20;1.00;;;;;;5078887;28;20154;-79
2023/06/30 09:16:15;;;;;;;8.68;2.83;;;18.40;1.00;;;;;;5078184;28;20189;-79
2023/06/30 09:18:42;;;;;;;8.27;3.03;;;18.50;1.00;;;;;;5078610;28;20193;-78
2023/06/30 09:21:08;;;;;;;6.57;2.63;;;18.30;99.90;;;;;;5078900;28;20621;-79
2023/06/30 09:23:34;;;;;;;5.95;2.25;;;18.00;1.00;;;;;;5060923;28;20181;-79
2023/06/30 09:26:00;;;;;;;7.40;2.80;;;18.10;99.90;;;;;;5078342;28;20251;-78
2023/06/30 09:28:34;;;;;;;6.13;2.55;;;18.20;1.00;;;;;;5059889;28;20212;-78
2023/06/30 09:31:02;;;;;;;5.75;2.70;;;18.40;1.00;;;;;;5059949;28;20664;-78
2023/06/30 09:33:28;;;;;;;4.93;2.50;;;18.60;1.00;;;;;;5059858;28;20174;-78
2023/06/30 09:35:56;;;;;;;5.93;2.58;;;18.80;99.90;;;;;;5078542;28;20162;-79
2023/06/30 09:38:22;;;;;;;2.83;2.42;;;19.00;1.00;;;;;;5078131;28;20185;-78
2023/06/30 09:40:49;;;;;;;5.38;2.22;;;19.00;99.90;;;;;;5060994;28;20177;-79
2023/06/30 09:43:20;;;;;;;3.60;2.20;;;19.20;1.00;;;;;;5078403;28;20650;-78
2023/06/30 09:45:53;;;;;;;5.30;2.55;;;19.10;1.00;;;;;;5076917;28;20740;-78
2023/06/30 09:48:19;;;;;;;3.75;2.10;;;19.20;1.00;;;;;;5059114;28;20219;-78
2023/06/30 09:50:45;;;;;;;6.70;2.60;;;19.20;99.90;;;;;;5059481;28;20299;-79
2023/06/30 09:53:11;;;;;;;4.40;2.30;;;19.20;99.90;;;;;;5077370;28;20193;-79
2023/06/30 09:55:51;;;;;;;6.50;2.50;;;19.40;1.00;;;;;;5061134;28;20625;-78
2023/06/30 09:58:18;;;;;;;4.57;2.70;;;19.60;99.90;;;;;;5060797;28;20286;-78
2023/06/30 10:00:45;;;;;;;5.95;2.67;;;19.50;1.00;;;;;;5059977;28;20661;-78
2023/06/30 10:03:16;;;;;;;5.43;3.00;;;19.70;99.90;;;;;;5060435;28;20273;-78
2023/06/30 10:05:43;;;;;;;4.63;2.42;;;19.30;99.90;;;;;;5078636;28;20201;-79
2023/06/30 10:08:11;;;;;;;4.82;2.40;;;19.40;68.80;;;;;;5061268;28;20204;-79
2023/06/30 10:10:36;;;;;;;4.82;2.50;;;19.40;99.90;;;;;;5060211;28;20189;-78
2023/06/30 10:13:03;;;;;;;5.07;2.47;;;19.30;1.00;;;;;;5059292;28;20536;-77
2023/06/30 10:15:31;;;;;;;4.07;2.50;;;19.40;99.90;;;;;;5067169;28;20178;-77
2023/06/30 10:17:58;;;;;;;4.78;2.38;;;19.50;99.90;;;;;;5039392;28;20277;-77
2023/06/30 10:20:24;;;;;;;4.55;2.00;;;19.50;1.00;;;;;;5039163;28;20642;-76
2023/06/30 10:22:51;;;;;;;4.63;2.70;;;19.60;1.00;;;;;;5042378;28;20228;-77
2023/06/30 10:25:20;;;;;;;3.70;2.08;;;19.80;1.00;;;;;;5039408;28;20186;-76
2023/06/30 10:27:47;;;;;;;3.20;2.08;;;20.10;1.00;;;;;;5057547;28;20189;-78
2023/06/30 10:30:14;;;;;;;5.88;2.25;;;20.20;1.00;;;;;;5056440;28;20649;-77
2023/06/30 10:32:40;;;;;;;4.43;2.45;;;20.30;1.00;;;;;;5057809;28;20224;-78
2023/06/30 10:35:08;;;;;;;3.25;2.25;;;20.30;1.00;;;;;;5057108;28;20197;-77
2023/06/30 10:37:34;;;;;;;6.45;2.17;;;20.10;99.90;;;;;;5040381;28;20209;-78
2023/06/30 10:40:00;;;;;;;4.53;2.00;;;20.20;99.90;;;;;;5056816;28;20178;-77
2023/06/30 10:42:27;;;;;;;4.32;2.00;;;20.10;1.00;;;;;;5056485;28;20237;-77
2023/06/30 10:44:58;;;;;;;5.43;2.03;;;20.20;1.00;;;;;;5062159;28;20688;-78
2023/06/30 10:47:27;;;;;;;5.47;2.15;;;20.30;1.00;;;;;;5078569;28;20216;-77
2023/06/30 10:49:54;;;;;;;3.17;2.05;;;20.30;99.90;;;;;;5059032;28;20588;-77
2023/06/30 10:52:28;;;;;;;3.90;2.22;;;19.90;99.90;;;;;;5058806;28;20518;-77
2023/06/30 10:54:54;;;;;;;5.07;1.80;;;20.00;24.40;;;;;;5076983;28;20166;-76
2023/06/30 10:57:21;;;;;;;6.53;1.90;;;20.30;99.90;;;;;;5058187;28;20200;-77
2023/06/30 10:59:47;;;;;;;5.68;2.05;;;20.10;1.00;;;;;;5058726;28;20702;-77
2023/06/30 11:02:14;;;;;;;6.22;2.17;;;20.20;99.90;;;;;;5058211;28;20645;-77
2023/06/30 11:04:44;;;;;;;5.10;2.20;;;20.10;1.00;;;;;;5075660;28;20196;-78
2023/06/30 11:07:15;;;;;;;4.25;1.92;;;20.10;99.90;;;;;;5057184;28;20202;-76
2023/06/30 11:09:47;;;;;;;4.55;2.33;;;20.20;99.90;;;;;;5075829;28;20299;-75
2023/06/30 11:12:43;;;;;;;3.78;2.30;;;20.30;1.00;;;;;;5057651;28;20325;-76
2023/06/30 11:15:27;;;;;;;3.63;2.28;;;20.20;1.00;;;;;;5050964;28;20240;-76
2023/06/30 11:17:54;;;;;;;3.58;2.10;;;20.30;1.00;;;;;;5061694;28;20198;-74
2023/06/30 11:20:26;;;;;;;5.55;2.15;;;20.30;1.00;;;;;;5061291;28;20182;-75
2023/06/30 11:23:02;;;;;;;3.40;2.03;;;20.30;99.90;;;;;;5078373;28;20181;-73
2023/06/30 11:25:30;;;;;;;3.22;1.83;;;20.50;1.00;;;;;;5057294;28;20188;-72
2023/06/30 11:27:57;;;;;;;3.80;2.17;;;20.60;99.90;;;;;;5074508;28;20196;-72
2023/06/30 11:30:23;;;;;;;3.50;1.90;;;20.60;99.90;;;;;;5074365;28;20641;-73
2023/06/30 11:32:58;;;;;;;4.90;1.90;;;20.80;99.90;;;;;;5056100;28;20239;-72
2023/06/30 11:35:26;;;;;;;7.32;2.10;;;21.00;1.00;;;;;;5056550;28;20655;-72
2023/06/30 11:37:52;;;;;;;3.80;2.00;;;20.90;1.00;;;;;;5055906;28;20194;-73
2023/06/30 11:40:19;;;;;;;6.43;2.17;;;20.90;99.90;;;;;;5074356;28;20191;-74
2023/06/30 11:42:45;;;;;;;5.53;2.20;;;21.10;1.00;;;;;;5074260;28;20176;-75
2023/06/30 11:45:16;;;;;;;4.03;1.90;;;21.30;1.00;;;;;;5073963;28;20264;-75
2023/06/30 11:47:46;;;;;;;7.40;2.03;;;21.30;99.90;;;;;;5074200;28;20215;-74
2023/06/30 11:50:13;;;;;;;2.88;1.70;;;21.20;99.90;;;;;;5074143;28;20250;-75
2023/06/30 11:52:39;;;;;;;4.15;1.77;;;21.30;99.90;;;;;;5074138;28;20203;-76
2023/06/30 11:55:09;;;;;;;2.90;1.90;;;21.20;99.90;;;;;;5055928;28;20184;-76
2023/06/30 11:57:36;;;;;;;3.78;1.90;;;21.20;1.00;;;;;;5055969;28;20184;-76
2023/06/30 12:00:14;;;;;;;3.83;2.15;;;21.10;1.00;;;;;;5055763;28;20181;-76
2023/06/30 12:02:47;;;;;;;4.22;2.42;;;21.00;1.00;;;;;;5073731;28;20205;-76
2023/06/30 12:05:25;;;;;;;5.82;2.50;;;20.80;18.10;;;;;;5073370;28;20675;-77
2023/06/30 12:07:55;;;;;;;5.70;2.22;;;20.60;99.90;;;;;;5055627;28;20202;-76
2023/06/30 12:10:22;;;;;;;4.60;2.35;;;20.80;99.90;;;;;;5076795;28;20158;-76
2023/06/30 12:12:58;;;;;;;8.15;3.28;;;21.10;99.90;;;;;;5059728;28;20590;-76
2023/06/30 12:15:24;;;;;;;3.00;1.95;;;21.40;1.00;;;;;;5059306;28;20181;-76
2023/06/30 12:17:54;;;;;;;2.65;1.90;;;21.20;99.90;;;;;;5077199;28;20236;-74
2023/06/30 12:20:35;;;;;;;6.72;2.92;;;21.20;99.90;;;;;;5077588;28;20170;-76
2023/06/30 12:23:09;;;;;;;3.25;2.15;;;20.90;99.90;;;;;;5077173;28;20146;-75
2023/06/30 12:25:36;;;;;;;1.95;1.75;;;20.80;19.60;;;;;;5059724;28;20177;-76
2023/06/30 12:28:05;;;;;;;4.10;2.08;;;20.70;99.90;;;;;;5077626;28;20217;-76
2023/06/30 12:30:32;;;;;;;4.68;2.35;;;20.70;1.00;;;;;;5059662;28;20654;-75
2023/06/30 12:32:59;;;;;;;4.28;2.28;;;20.60;99.90;;;;;;5059466;28;20554;-75
2023/06/30 12:35:36;;;;;;;4.65;1.83;;;20.50;36.70;;;;;;5077883;28;20162;-76
2023/06/30 12:38:04;;;;;;;5.47;2.20;;;20.50;99.90;;;;;;5059125;28;20657;-75
2023/06/30 12:40:30;;;;;;;3.92;1.85;;;20.40;41.60;;;;;;5076746;28;20196;-76
2023/06/30 12:42:59;;;;;;;3.28;2.03;;;20.40;1.00;;;;;;5077093;28;20209;-76